Date,TemperatureHighF,TemperatureAvgF,TemperatureLowF,DewpointHighF,DewpointAvgF,DewpointLowF,HumidityHigh,HumidityAvg,HumidityLow,PressureMaxIn,PressureMinIn,WindSpeedMaxMPH,WindSpeedAvgMPH,GustSpeedMaxMPH,PrecipitationSumIn
2013-1-1,49,46,43,48,39,29,97,77,54,30.12,29.93,10,4,14,0.20
2013-1-2,49,44,39,48,40,37,100,89,71,30.20,29.93,9,3,12,0.16
2013-1-3,43,38,32,38,35,29,95,89,78,30.28,30.15,5,1,7,0.00
2013-1-4,34,34,34,30,30,30,85,85,85,30.28,30.28,1,1,1,0.00
2013-1-6,52,46,39,38,36,33,85,69,57,30.20,30.07,7,1,10,0.00
2013-1-7,52,42,35,34,31,29,81,67,48,30.44,30.20,8,2,13,0.00
2013-1-8,56,42,29,41,36,27,93,78,56,30.50,30.39,4,0,6,0.00
2013-1-9,46,44,43,40,38,37,84,81,78,30.42,30.38,1,0,5,0.00
2013-1-10,63,55,47,47,42,36,92,64,42,30.54,30.43,5,2,9,0.00
2013-1-11,50,45,40,46,42,37,97,90,64,30.43,30.17,5,2,7,0.18
2013-1-12,70,58,46,63,56,45,98,94,79,30.18,30.10,7,2,9,0.00
2013-1-13,74,63,54,62,58,54,98,86,66,30.13,30.04,13,4,17,0.02
2013-1-14,63,61,55,62,60,53,98,97,95,30.14,30.09,9,2,11,0.36
2013-1-15,54,44,42,53,43,41,98,97,95,30.24,30.08,11,4,17,0.09
2013-1-16,49,44,40,49,43,39,98,98,97,30.09,29.98,7,2,12,0.15
2013-1-17,50,45,33,50,44,32,98,97,93,30.17,29.90,18,5,25,1.14
2013-1-18,42,35,29,33,29,25,97,81,51,30.55,30.16,6,1,11,0.33
2013-1-19,53,39,27,33,28,24,92,69,42,30.52,30.17,8,3,11,0.01
2013-1-20,61,48,37,37,32,29,76,57,37,30.17,30.00,12,4,17,0.00
2013-1-21,59,46,32,34,28,17,85,53,32,30.09,29.88,12,4,18,0.00
2013-1-22,41,32,24,19,6,-2,50,34,21,30.30,29.97,10,4,18,0.00
2013-1-23,41,28,18,19,12,3,72,50,35,30.40,30.07,11,3,19,0.00
2013-1-24,37,30,22,26,13,3,76,51,31,30.53,29.98,15,5,21,0.00
2013-1-25,26,23,20,24,15,5,93,73,49,30.55,30.14,6,2,9,0.00
2013-1-26,37,30,25,32,28,24,95,91,78,30.43,30.12,5,2,8,0.17
2013-1-27,40,32,23,29,25,20,91,78,61,30.62,30.42,5,2,11,0.01
2013-1-28,50,42,32,47,36,27,92,82,63,30.53,30.25,10,4,15,0.03
2013-1-29,72,58,47,58,52,45,96,82,60,30.26,30.05,10,6,15,0.00
2013-1-30,72,66,59,65,62,55,94,85,74,30.06,29.36,23,11,32,0.45
2013-1-31,59,45,34,55,30,21,92,59,36,30.01,29.44,19,11,29,0.10
2013-2-1,40,33,24,29,14,4,67,46,27,30.40,29.88,13,7,23,0.00
2013-2-2,43,32,18,34,15,8,84,51,34,30.42,30.05,18,4,24,0.00
2013-2-3,49,40,34,35,30,24,95,70,46,30.05,29.86,14,4,20,0.00
2013-2-4,49,38,27,28,24,20,80,58,39,30.17,30.01,8,3,12,0.00
2013-2-5,59,46,38,37,33,28,75,61,42,30.02,29.90,9,4,13,0.00
2013-2-6,59,47,36,37,31,25,83,56,28,30.28,29.98,7,2,14,0.00
2013-2-7,45,40,35,40,35,27,95,83,56,30.34,30.02,7,4,12,0.47
2013-2-8,55,44,36,47,38,28,100,81,49,30.07,29.84,10,6,20,0.33
2013-2-9,44,36,30,28,26,20,83,67,38,30.31,30.06,9,3,14,0.00
2013-2-10,52,45,30,40,26,20,87,49,33,30.51,30.22,7,2,11,0.04
2013-2-11,61,54,43,59,52,40,100,93,87,30.22,29.92,11,6,16,0.07
2013-2-12,58,52,45,52,36,29,92,58,33,30.10,29.91,9,3,12,0.00
2013-2-13,51,45,40,45,41,32,96,88,49,29.96,29.63,8,2,14,0.26
2013-2-14,50,41,31,35,32,29,93,72,47,30.08,29.84,7,2,11,0.00
2013-2-15,61,48,36,40,34,28,89,62,29,30.10,29.93,11,3,16,0.00
2013-2-16,44,34,28,34,31,23,96,88,69,29.98,29.85,9,3,13,0.24
2013-2-17,37,29,23,23,14,9,83,56,33,30.31,29.95,11,4,19,0.01
2013-2-18,52,35,19,27,20,11,83,55,34,30.43,30.26,9,3,14,0.00
2013-2-19,48,40,31,46,36,25,95,85,60,30.26,29.88,16,5,22,0.24
2013-2-20,52,40,27,35,20,13,81,47,22,30.16,29.99,11,4,20,0.00
2013-2-21,54,40,26,27,20,14,71,45,26,30.27,30.13,7,2,11,0.00
2013-2-22,42,35,32,34,31,22,96,87,46,30.36,30.15,5,2,8,0.22
2013-2-23,42,38,35,41,37,34,97,96,95,30.15,29.84,7,2,9,0.41
2013-2-24,57,46,41,44,38,26,97,79,42,30.05,29.81,8,3,13,0.00
2013-2-25,42,37,31,28,25,22,76,63,52,30.23,30.04,6,3,11,0.00
2013-2-26,56,42,34,55,38,25,100,87,62,30.16,29.57,8,5,18,0.62
2013-2-27,58,48,40,42,40,36,97,74,50,29.80,29.63,12,6,16,0.00
2013-2-28,48,42,36,39,31,26,89,66,46,29.87,29.70,12,3,17,0.00
2013-3-1,45,38,30,32,28,26,86,68,51,29.90,29.84,7,3,13,0.00
2013-3-3,44,37,29,24,21,18,64,52,43,30.00,29.87,10,5,17,0.00
2013-3-4,51,37,24,20,17,15,73,46,24,30.14,29.99,10,3,15,0.00
2013-3-5,45,42,36,44,34,19,97,76,41,30.09,29.57,5,1,13,0.28
2013-3-6,47,41,36,43,32,27,96,72,52,30.06,29.53,14,6,28,0.03
2013-3-7,50,41,34,32,29,25,79,64,49,30.26,30.06,11,4,18,0.00
2013-3-8,55,43,32,29,26,24,76,54,33,30.31,30.17,13,4,21,0.00
2013-3-9,62,47,34,34,29,26,75,52,30,30.36,30.25,8,3,12,0.00
2013-3-10,67,52,36,35,30,24,76,45,26,30.33,30.20,6,1,10,0.00
2013-3-11,68,55,40,54,42,24,86,64,38,30.24,29.92,12,3,20,0.00
2013-3-12,67,59,48,60,51,32,97,77,39,29.95,29.74,13,6,23,0.81
2013-3-13,55,45,34,33,28,19,86,54,30,30.15,29.95,16,6,24,0.00
2013-3-14,52,41,30,23,19,17,59,43,26,30.26,30.13,12,4,18,0.00
2013-3-15,62,47,29,37,28,18,73,49,36,30.20,29.90,15,5,21,0.00
2013-3-16,77,62,47,55,46,36,77,57,38,29.91,29.65,16,6,22,0.00
2013-3-17,64,51,40,53,45,38,95,81,66,30.17,29.82,10,5,17,0.00
2013-3-18,40,38,37,39,37,36,96,95,94,30.21,29.85,6,4,14,0.27
2013-3-19,66,50,38,46,32,11,97,61,19,30.04,29.84,13,5,23,0.01
2013-3-20,56,47,40,27,16,10,56,30,22,30.12,29.80,12,4,21,0.00
2013-3-21,44,38,30,33,18,11,74,46,32,30.00,29.75,10,6,18,0.00
2013-3-22,51,37,22,24,16,11,74,44,24,30.10,29.99,10,4,15,0.00
2013-3-23,56,45,37,34,27,20,71,50,36,30.07,29.91,6,1,9,0.00
2013-3-24,42,38,35,38,34,29,95,86,66,29.94,29.56,10,4,16,0.57
2013-3-25,47,39,34,39,30,24,96,72,43,29.83,29.58,16,6,27,0.01
2013-3-26,47,40,32,30,27,24,77,59,47,30.14,29.83,8,4,14,0.00
2013-3-27,50,41,32,29,25,21,79,56,35,30.25,30.13,12,4,21,0.00
2013-3-28,56,43,29,29,25,23,80,52,30,30.31,30.17,10,4,20,0.00
2013-3-29,59,46,34,31,27,24,71,49,28,30.35,30.19,10,2,17,0.00
2013-3-30,66,54,42,44,35,28,73,49,31,30.25,30.08,8,2,14,0.00
2013-3-31,67,56,47,57,51,44,97,84,64,30.10,29.80,16,4,21,0.61
2013-4-1,71,59,52,54,50,40,97,76,35,29.89,29.82,11,4,20,0.06
2013-4-11,81,73,61,66,62,59,93,71,52,29.98,29.77,11,7,19,0.00
2013-4-12,82,72,64,70,62,43,96,72,43,29.78,29.57,17,8,24,0.54
2013-4-13,74,62,48,48,42,39,74,49,30,30.00,29.76,10,3,14,0.00
2013-4-14,80,65,46,55,44,38,80,51,24,30.10,30.00,8,2,14,0.00
2013-4-15,70,63,56,59,56,53,95,81,63,30.20,30.00,5,2,14,0.06
2013-4-16,77,66,60,62,59,58,95,80,58,30.30,30.19,5,1,10,0.00
2013-4-17,81,68,58,65,61,56,97,80,57,30.22,30.10,8,2,11,0.00
2013-4-18,79,69,60,64,61,57,92,77,54,30.18,30.05,7,3,12,0.00
2013-4-19,82,72,65,70,66,64,95,82,65,29.90,29.69,21,10,40,0.63
2013-4-20,63,56,47,41,37,32,77,50,34,30.28,30.11,9,3,19,0.00
2013-4-21,62,51,42,42,38,34,86,63,44,30.50,30.27,9,4,17,0.00
2013-4-22,62,49,36,42,36,31,91,65,40,30.48,30.27,11,5,19,0.00
2013-4-23,68,57,46,54,48,44,92,74,54,30.27,30.13,7,3,14,0.01
2013-4-24,55,52,49,50,49,47,93,88,83,30.15,30.11,2,0,4,0.00
2013-4-25,69,60,50,46,44,41,78,58,37,30.27,30.19,3,1,9,0.00
2013-4-26,70,58,42,47,40,35,84,54,29,30.43,30.27,8,2,19,0.00
2013-4-27,72,61,52,53,48,43,81,63,42,30.37,30.26,9,2,13,0.00
2013-4-28,59,56,54,54,52,49,96,89,74,30.26,30.08,4,1,10,0.66
2013-4-29,71,62,55,64,59,54,98,91,71,30.08,29.97,4,1,8,0.26
2013-4-30,66,60,56,60,57,53,98,91,78,30.19,30.00,5,2,12,0.01
2013-5-1,61,58,56,59,56,54,96,92,88,30.33,30.17,8,4,18,0.00
2013-5-2,62,57,53,58,55,51,97,93,86,30.34,30.27,5,3,12,0.00
2013-5-3,67,56,48,57,50,42,96,80,51,30.28,30.17,7,3,16,0.01
2013-5-4,62,54,48,53,48,44,91,82,68,30.22,30.08,9,5,17,0.00
2013-5-5,57,53,48,54,50,46,94,89,81,30.11,29.98,7,5,18,0.01
2013-5-6,65,59,55,62,58,54,97,95,86,30.01,29.84,6,3,16,1.12
2013-5-7,69,59,51,60,54,48,98,84,49,29.95,29.85,9,2,15,0.01
2013-5-8,66,57,53,58,54,52,97,91,70,30.01,29.92,7,1,13,0.13
2013-5-9,80,66,52,62,58,52,98,78,46,30.07,29.98,8,2,14,0.01
2013-5-10,85,72,58,66,61,55,92,69,47,30.07,29.93,13,4,20,0.00
2013-5-11,80,71,65,68,64,59,94,78,57,29.94,29.77,14,5,21,0.06
2013-5-12,71,65,59,63,52,36,95,67,35,30.00,29.79,10,3,20,0.01
2013-5-13,66,57,42,43,38,33,88,50,32,30.19,30.04,10,3,18,0.00
2013-5-14,71,56,40,46,41,36,90,58,34,30.27,30.07,10,3,18,0.00
2013-5-15,87,70,52,66,56,44,80,64,46,30.07,29.89,11,5,18,0.00
2013-5-16,82,74,68,66,63,60,81,69,51,29.97,29.89,9,3,15,0.00
2013-5-17,86,75,63,68,63,60,90,69,46,30.07,29.97,6,1,12,0.00
2013-5-18,75,69,62,69,64,60,97,87,74,30.15,30.05,13,1,24,1.01
2013-5-19,78,68,63,70,66,62,99,94,74,30.15,30.05,8,2,13,0.76
2013-5-20,77,69,66,71,68,66,98,95,80,30.11,30.02,10,2,17,0.17
2013-5-21,83,73,67,74,69,66,98,89,70,30.05,29.93,7,4,12,0.04
2013-5-22,83,74,68,72,69,66,96,85,63,30.02,29.90,9,5,16,0.00
2013-5-23,79,71,66,70,67,64,98,89,70,29.95,29.81,7,3,13,1.06
2013-5-24,68,64,54,65,53,39,96,71,42,30.19,29.82,10,4,23,0.00
2013-5-25,74,58,46,56,43,35,83,59,30,30.29,30.14,10,3,18,0.00
2013-5-26,73,61,52,54,46,40,83,59,34,30.28,30.17,7,2,16,0.00
2013-5-27,80,66,52,60,55,49,94,69,44,30.28,30.15,8,2,14,0.00
2013-5-28,84,72,62,69,64,56,94,77,58,30.24,30.13,10,4,19,0.00
2013-5-29,84,73,62,68,65,60,95,76,54,30.23,30.15,10,4,16,0.00
2013-5-30,84,73,62,70,65,60,97,78,50,30.27,30.17,8,3,14,0.00
2013-5-31,86,75,65,71,67,63,96,78,54,30.22,30.09,9,4,16,0.00
2013-6-1,86,76,67,71,68,66,96,78,52,30.13,30.02,10,6,19,0.00
2013-6-2,85,79,69,73,69,67,96,74,58,29.99,29.89,11,6,23,0.49
2013-6-3,82,71,66,73,68,64,98,91,67,29.94,29.82,10,3,20,0.68
2013-6-4,76,69,65,67,65,62,97,88,68,30.09,29.94,5,2,14,0.00
2013-6-5,79,70,63,67,63,61,96,79,56,30.13,30.01,5,1,11,0.00
2013-6-6,73,70,65,72,67,60,97,90,70,30.02,29.80,8,2,15,0.49
2013-6-7,72,69,68,70,68,67,98,97,95,29.84,29.54,9,3,16,1.45
2013-6-8,82,72,64,71,68,63,99,87,62,30.09,29.82,9,2,13,0.02
2013-6-9,87,76,66,74,70,65,98,84,62,30.15,30.04,6,2,13,0.01
2013-6-10,82,73,71,77,72,69,98,94,81,30.09,29.86,17,6,30,0.70
2013-6-11,84,75,68,70,68,65,96,80,55,29.95,29.89,10,5,19,0.00
2013-6-12,89,79,65,77,72,63,94,79,62,29.97,29.85,10,3,15,0.00
2013-6-13,93,79,68,77,72,62,95,81,49,29.85,29.58,16,5,37,0.18
2013-6-14,79,70,60,66,61,57,93,74,49,30.01,29.73,10,3,18,0.00
2013-6-15,63,63,62,61,60,59,92,90,88,30.05,30.01,0,0,0,0.00
2013-6-19,73,69,67,68,66,65,95,91,83,30.12,30.06,1,0,2,0.01
2013-6-20,81,72,64,67,64,61,97,79,55,30.24,30.12,5,1,11,0.00
2013-6-21,82,71,58,66,59,53,89,70,42,30.27,30.19,6,2,13,0.00
2013-6-22,71,68,66,70,66,62,97,94,85,30.21,30.13,3,1,9,0.01
2013-6-23,87,75,66,76,71,65,98,87,65,30.21,30.11,6,1,14,0.01
2013-6-24,87,76,69,77,72,68,98,87,68,30.20,30.08,11,4,17,0.00
2013-6-25,89,76,69,77,72,67,98,86,60,30.12,29.99,9,4,13,0.00
2013-6-26,90,76,68,78,71,66,97,87,61,30.03,29.87,16,4,33,0.62
2013-6-27,88,77,68,78,72,66,98,86,67,29.93,29.70,11,6,18,0.00
2013-6-28,89,78,70,77,73,70,98,84,62,29.73,29.55,11,5,25,0.53
2013-6-29,84,75,69,76,72,68,98,89,71,29.71,29.58,9,3,15,0.15
2013-6-30,86,74,69,76,71,68,98,93,68,29.84,29.69,14,2,18,1.05
2013-7-1,82,74,69,75,71,69,99,92,76,29.98,29.83,7,2,13,0.36
2013-7-2,76,73,71,74,72,70,98,96,92,30.17,29.98,8,3,16,0.32
2013-7-3,85,75,72,77,73,70,98,94,75,30.23,30.14,13,3,20,0.98
2013-7-4,85,76,72,78,74,71,98,92,76,30.27,30.16,10,3,18,0.44
2013-7-5,89,78,72,78,74,70,98,86,66,30.27,30.15,6,2,14,0.00
2013-7-6,87,78,72,77,73,70,98,86,66,30.24,30.10,6,2,11,0.00
2013-7-7,87,77,69,78,72,68,97,87,69,30.18,30.05,14,4,25,0.86
2013-7-8,87,77,71,77,73,70,98,87,61,30.17,30.08,6,2,11,0.47
2013-7-9,88,77,72,80,74,69,99,90,71,30.15,30.04,12,3,20,0.00
2013-7-10,87,78,72,78,74,70,98,88,72,30.10,29.93,17,6,25,0.99
2013-7-11,77,74,72,75,73,71,98,96,89,29.96,29.87,7,3,13,0.28
2013-7-12,72,72,71,72,71,70,98,98,94,29.92,29.87,6,2,9,0.07
2013-7-13,75,74,74,73,73,72,96,95,94,30.17,30.13,4,2,12,0.14
2013-7-14,87,77,71,78,73,70,98,89,63,30.30,30.16,5,2,11,1.40
2013-7-15,76,75,73,73,72,71,93,91,89,30.26,30.25,0,0,3,0.01
2013-7-16,92,81,72,80,74,70,96,81,61,30.27,30.17,5,1,10,0.00
2013-7-17,91,83,75,79,76,72,96,81,60,30.21,30.09,5,1,9,0.00
2013-7-18,94,82,74,80,76,72,95,82,58,30.13,30.01,8,1,13,0.00
2013-7-19,90,81,74,80,76,73,97,85,68,30.08,29.96,10,4,15,0.01
2013-7-20,87,79,74,78,75,72,95,87,72,30.01,29.90,10,6,16,0.00
2013-7-21,88,79,74,78,74,71,95,87,70,29.98,29.89,8,4,14,0.00
2013-7-22,86,79,72,78,74,71,99,86,71,29.94,29.82,9,4,15,0.00
2013-7-23,89,80,72,77,73,71,97,82,62,29.83,29.71,11,5,17,0.00
2013-7-24,92,80,72,77,72,69,91,78,54,29.84,29.72,7,2,13,0.00
2013-7-25,80,73,66,72,68,64,95,86,72,30.03,29.81,7,3,15,0.02
2013-7-26,84,73,63,71,66,61,96,80,60,30.11,30.01,5,1,10,0.00
2013-7-27,82,71,67,74,68,66,98,91,71,30.05,29.93,7,1,20,0.47
2013-7-28,86,76,68,75,71,67,98,87,64,30.00,29.91,14,3,24,0.21
2013-7-29,84,75,68,71,67,62,97,79,55,30.15,29.98,9,2,15,0.01
2013-7-30,85,74,63,72,66,59,92,76,55,30.22,30.13,5,1,10,0.00
2013-7-31,83,76,70,75,71,67,97,86,69,30.14,29.98,16,1,22,0.40
2013-8-1,84,74,70,77,72,69,98,92,73,30.00,29.86,6,3,21,0.21
2013-8-2,87,76,67,75,70,66,98,83,56,30.02,29.90,5,1,9,0.32
2013-8-3,88,77,70,78,73,69,98,89,66,30.01,29.90,11,3,15,0.13
2013-8-4,84,75,68,72,69,62,98,82,50,30.02,29.89,9,2,14,0.01
2013-8-5,82,73,65,71,66,62,94,80,60,30.09,29.99,6,1,9,0.00
2013-8-6,81,72,65,72,67,63,97,86,68,30.06,29.98,11,4,17,0.51
2013-8-7,85,76,68,75,70,67,96,85,67,30.09,30.01,9,2,15,0.00
2013-8-8,86,77,70,77,73,69,97,88,71,30.06,29.99,6,2,9,0.00
2013-8-9,90,79,73,79,74,71,96,86,69,30.04,29.97,12,5,19,0.01
2013-8-10,92,78,73,80,74,70,97,89,66,30.08,30.00,17,4,28,0.05
2013-8-11,90,78,71,78,73,71,98,87,64,30.10,30.00,6,2,13,0.00
2013-8-12,90,80,72,77,74,71,98,84,58,30.04,29.92,10,1,15,0.02
2013-8-13,88,76,71,78,73,70,98,90,67,29.97,29.77,8,3,13,0.13
2013-8-14,76,71,62,72,66,60,96,83,68,30.08,29.82,9,2,14,0.00
2013-8-15,76,65,59,64,59,56,93,81,54,30.17,30.08,6,1,11,0.00
2013-8-16,70,64,58,64,60,57,96,86,73,30.19,30.10,4,1,9,0.00
2013-8-17,68,65,61,68,63,59,98,95,90,30.19,30.13,6,2,10,0.23
2013-8-18,77,70,66,71,68,64,99,92,77,30.21,30.11,6,3,11,0.08
2013-8-19,74,69,65,71,67,64,98,96,87,30.19,30.09,6,0,8,0.29
2013-8-20,82,73,64,74,70,63,99,91,72,30.19,30.10,3,0,7,0.01
2013-8-21,85,74,70,77,72,69,99,94,73,30.22,30.09,6,1,10,0.49
2013-8-22,88,77,70,76,72,69,99,86,61,30.14,29.98,6,2,9,0.00
2013-8-23,86,75,67,76,70,65,95,87,67,30.08,29.93,10,2,16,0.41
2013-8-24,81,71,63,67,64,61,96,80,53,30.30,30.08,7,3,14,0.00
2013-8-25,79,69,60,66,62,59,97,81,53,30.40,30.28,6,2,13,0.00
2013-8-26,82,68,56,65,60,55,98,77,41,30.32,30.11,5,1,12,0.00
2013-8-27,88,75,65,76,68,60,91,79,58,30.13,29.96,6,2,12,0.00
2013-8-28,82,77,72,77,73,70,94,88,79,29.99,29.86,6,2,9,0.00
2013-8-29,86,78,71,75,73,69,94,83,65,30.01,29.84,8,3,19,0.00
2013-8-30,86,75,67,72,68,65,98,81,51,30.06,29.93,6,1,9,0.00
2013-8-31,87,76,69,75,71,66,97,85,67,29.96,29.85,9,4,15,0.00
2013-9-1,89,76,70,78,72,69,98,90,67,29.89,29.77,13,4,19,1.39
2013-9-2,86,76,68,77,72,67,99,88,67,29.89,29.79,6,2,10,0.00
2013-9-3,86,78,71,78,73,70,97,87,65,29.93,29.79,5,2,10,0.11
2013-9-4,84,74,65,74,68,61,95,82,64,30.08,29.93,5,2,18,0.00
2013-9-5,86,74,66,70,65,58,98,77,41,30.10,30.03,6,1,10,0.00
2013-9-6,80,71,63,66,62,56,87,74,53,30.18,30.08,7,3,13,0.00
2013-9-7,82,74,63,70,65,59,94,76,61,30.13,29.98,6,2,14,0.00
2013-9-8,87,74,65,73,66,62,95,78,51,29.99,29.91,6,1,10,0.00
2013-9-9,87,76,66,73,69,64,95,81,57,30.14,29.99,5,1,8,0.00
2013-9-10,89,78,68,75,71,67,97,81,54,30.23,30.13,6,2,10,0.00
2013-9-11,90,77,66,74,70,65,95,80,57,30.19,30.06,8,3,13,0.00
2013-9-12,89,76,69,76,71,66,96,84,62,30.06,29.80,7,3,26,0.24
2013-9-13,82,74,65,70,62,54,94,67,47,29.90,29.76,7,3,15,0.00
2013-9-14,75,64,56,60,54,50,88,71,53,30.14,29.90,9,3,16,0.00
2013-9-15,79,66,52,66,58,50,95,78,53,30.25,30.12,5,1,7,0.00
2013-9-16,84,73,65,71,65,60,98,79,51,30.19,30.04,8,3,15,0.00
2013-9-17,75,66,57,61,56,52,90,73,49,30.32,30.19,8,3,15,0.00
2013-9-18,72,60,50,56,52,48,96,76,44,30.33,30.18,8,1,12,0.00
2013-9-19,76,65,55,65,58,50,93,80,60,30.20,30.08,5,1,9,0.00
2013-9-20,69,66,63,67,64,62,97,95,91,30.09,29.96,3,0,7,0.36
2013-9-21,77,69,63,72,67,62,97,93,81,29.96,29.73,7,2,17,0.46
2013-9-22,75,66,58,63,61,56,97,85,59,29.90,29.71,10,4,18,0.23
2013-9-23,72,61,52,60,55,50,94,80,56,30.08,29.90,5,1,10,0.00
2013-9-24,76,63,55,63,58,53,94,82,57,30.11,29.95,5,1,7,0.00
2013-9-25,71,63,54,63,59,53,99,88,68,29.96,29.88,6,1,9,0.01
2013-9-26,75,65,57,62,58,52,95,80,46,30.04,29.88,9,2,14,0.00
2013-9-27,74,62,54,61,56,52,96,83,56,30.20,30.04,6,2,13,0.01
2013-9-28,70,60,53,57,54,51,96,83,60,30.28,30.18,8,2,14,0.01
2013-9-29,72,60,51,60,54,50,97,83,54,30.19,30.05,7,2,13,0.00
2013-9-30,76,62,50,61,56,49,97,82,54,30.11,30.00,3,1,9,0.00
2013-10-1,82,66,56,65,58,53,94,78,49,30.13,30.02,6,2,12,0.00
2013-10-3,85,74,68,68,65,63,87,74,49,30.10,30.05,7,1,7,0.00
2013-10-4,86,72,60,70,64,59,97,78,51,30.13,30.04,6,2,10,0.00
2013-10-5,88,74,62,72,66,60,97,79,51,30.11,30.02,5,1,9,0.00
2013-10-6,84,72,62,71,67,61,97,84,61,30.06,29.92,8,2,13,0.00
2013-10-7,72,70,63,70,68,55,98,93,75,30.00,29.83,9,4,16,1.02
2013-10-8,63,59,56,55,51,47,83,74,65,30.22,29.99,10,5,18,0.00
2013-10-9,65,57,54,58,52,49,95,83,76,30.20,30.11,12,6,19,0.05
2013-10-10,61,58,53,59,56,51,96,94,93,30.11,29.95,10,7,17,0.33
2013-10-11,70,63,59,63,60,57,95,89,77,29.98,29.92,8,3,15,0.00
2013-10-12,66,63,58,65,61,57,97,95,89,30.09,29.96,4,2,11,0.02
2013-10-13,62,61,60,61,60,60,98,97,96,30.19,30.08,5,3,11,0.02
2013-10-16,64,62,62,61,60,60,95,93,90,29.99,29.97,1,0,2,0.00
2013-10-17,72,66,61,66,63,59,96,90,75,29.97,29.84,10,4,13,0.01
2013-10-18,69,62,52,64,54,48,97,79,53,30.05,29.88,9,2,14,0.00
2013-10-19,67,60,55,63,58,53,96,92,84,29.99,29.82,6,1,9,0.00
2013-10-20,64,54,46,57,46,41,97,77,47,30.13,29.91,7,2,12,0.00
2013-10-21,68,53,40,53,46,39,96,80,51,30.17,30.01,6,1,9,0.00
2013-10-22,67,59,53,59,55,50,97,86,66,30.01,29.81,6,2,10,0.00
2013-10-23,59,58,53,58,56,51,97,95,82,29.81,29.69,6,3,9,0.02
2013-10-24,57,49,45,39,37,35,76,62,47,30.20,30.09,8,2,15,0.00
2013-10-25,54,45,38,36,33,29,84,64,39,30.38,30.19,10,3,19,0.00
2013-10-26,58,44,30,38,33,28,93,66,38,30.38,30.08,11,4,16,0.00
2013-10-27,68,55,46,46,41,37,86,62,39,30.14,30.05,8,2,15,0.00
2013-10-28,69,56,46,54,50,43,94,80,53,30.27,30.13,4,0,7,0.00
2013-10-29,71,59,51,58,54,50,96,84,57,30.34,30.25,3,1,8,0.00
2013-10-30,75,61,53,61,56,52,97,85,60,30.29,30.16,10,2,14,0.00
2013-10-31,72,64,56,62,58,54,96,82,67,30.19,29.91,10,4,15,0.00
2013-11-1,70,67,61,67,64,59,97,91,82,29.91,29.65,13,8,23,0.28
2013-11-2,69,60,52,59,51,39,98,76,42,29.95,29.70,11,4,19,0.01
2013-11-3,62,51,41,41,39,35,81,63,42,30.38,29.95,10,2,18,0.00
2013-11-4,55,44,36,38,34,30,81,69,45,30.57,30.38,7,2,15,0.00
2013-11-5,57,47,35,48,40,31,88,79,67,30.57,30.45,9,3,14,0.00
2013-11-6,71,56,44,57,50,41,93,81,60,30.45,30.12,4,1,9,0.00
2013-11-7,67,58,45,60,52,34,98,80,53,30.13,29.94,10,4,21,0.00
2013-11-8,56,45,35,34,30,26,80,58,34,30.34,30.11,9,2,17,0.00
2013-11-9,58,45,31,36,32,27,88,62,36,30.39,30.20,10,3,17,0.00
2013-11-10,70,55,42,42,35,28,76,50,28,30.25,30.08,15,4,24,0.00
2013-11-11,60,47,34,34,31,27,77,54,34,30.36,30.15,6,2,15,0.00
2013-11-12,57,43,32,40,34,19,92,72,49,30.45,30.05,15,4,25,0.02
2013-11-13,44,34,26,23,20,17,74,58,37,30.56,30.44,10,3,20,0.00
2013-11-14,31,29,28,22,21,20,78,71,67,30.49,30.45,2,0,4,0.00
2013-11-15,60,50,34,48,39,23,92,65,48,30.37,30.22,7,2,11,0.04
2013-11-16,62,54,49,58,52,47,97,94,84,30.28,30.22,4,1,9,0.02
2013-11-17,66,60,54,64,58,53,99,94,84,30.23,29.88,9,2,16,0.04
2013-11-18,74,64,52,66,52,32,98,68,36,29.98,29.80,12,4,20,0.07
2013-11-19,54,47,39,32,30,29,70,52,39,30.32,29.97,9,4,20,0.00
2013-11-20,52,42,35,36,31,27,86,65,50,30.47,30.32,9,4,18,0.00
2013-11-21,60,48,39,48,41,35,88,78,63,30.52,30.41,8,3,12,0.00
2013-11-22,69,57,47,60,52,43,92,83,71,30.41,30.08,12,3,18,0.00
2013-11-23,61,54,41,59,41,21,94,64,35,30.19,30.04,10,4,18,0.00
2013-11-24,41,32,25,23,10,4,57,41,27,30.57,30.19,14,6,26,0.00
2013-11-25,42,31,20,18,11,8,71,45,26,30.61,30.40,6,1,16,0.00
2013-11-26,63,44,36,62,34,13,98,73,38,30.41,29.62,9,4,21,0.92
2013-11-27,45,38,29,44,34,16,97,84,59,30.19,29.51,23,5,23,0.55
2013-11-28,43,32,23,24,20,15,79,62,43,30.51,30.19,6,2,14,0.00
2013-11-29,49,36,27,28,25,22,81,64,43,30.66,30.50,12,3,17,0.00
2013-11-30,46,35,26,33,27,22,84,74,58,30.67,30.39,7,2,12,0.00
2013-12-1,59,39,26,35,30,24,93,72,39,30.39,30.10,5,1,9,0.00
2013-12-4,60,56,50,57,54,49,97,94,89,30.10,30.01,5,1,8,0.02
2013-12-5,66,61,56,64,60,55,99,97,89,30.12,30.03,11,5,20,0.10
2013-12-6,76,69,64,66,64,62,97,84,66,30.07,29.96,17,9,34,0.01
2013-12-7,68,48,42,65,44,34,95,86,75,30.46,29.98,13,7,20,0.21
2013-12-8,42,35,32,35,31,28,96,88,67,30.48,30.30,9,5,16,0.21
2013-12-9,44,38,33,43,38,32,100,97,96,30.33,30.08,6,2,8,0.33
2013-12-10,50,42,30,44,38,24,98,87,51,30.33,29.93,9,3,19,0.38
2013-12-11,49,36,26,29,25,21,85,65,39,30.47,30.31,11,2,14,0.00
2013-12-12,37,33,28,28,22,13,78,64,42,30.39,30.30,4,1,7,0.00
2013-12-13,50,37,25,30,22,13,79,56,34,30.41,30.29,9,2,15,0.00
2013-12-14,46,40,36,41,35,28,97,83,58,30.33,29.80,8,2,13,0.69
2013-12-15,52,42,32,43,35,27,98,79,52,30.09,29.73,10,3,20,0.01
2013-12-16,55,41,31,36,32,27,85,71,46,30.19,30.08,6,2,10,0.00
2013-12-17,62,47,32,40,36,29,93,67,42,30.13,29.89,14,4,20,0.00
2013-12-18,49,41,32,34,22,18,64,48,30,30.30,30.04,10,3,16,0.00
2013-12-19,62,46,31,32,26,19,65,46,26,30.34,30.23,13,5,21,0.00
2013-12-20,66,50,41,54,32,-100,89,64,52,30.25,30.12,13,-83,20,0.00
2013-12-21,73,57,51,65,45,-100,95,77,67,30.15,30.03,14,-71,27,0.00
2013-12-22,76,68,63,68,63,-100,97,86,69,30.08,29.99,14,-4,25,0.35
2013-12-23,65,56,45,64,50,-100,99,88,69,30.18,29.99,10,-35,20,1.13
2013-12-24,44,29,40,36,-8,-100,74,50,70,30.17,30.14,10,-307,15,0.00
2013-12-25,40,31,26,18,9,-100,68,46,34,30.54,-32.77,5,-46,15,0.00
2013-12-26,52,37,24,28,24,16,83,62,37,30.42,30.28,9,2,15,0.00
2013-12-27,52,38,26,28,23,20,82,56,32,30.49,30.39,4,1,8,0.00
2013-12-28,59,43,27,38,28,22,86,58,32,30.43,30.17,7,1,11,0.00
2013-12-29,55,46,41,50,44,34,98,91,63,30.17,29.73,11,3,25,1.45
2013-12-30,52,45,38,43,39,33,94,80,66,30.16,29.94,6,2,12,0.01
2013-12-31,49,41,33,37,30,23,96,68,37,30.38,30.13,11,3,22,0.01
2014-1-1,50,39,30,30,26,23,85,63,41,30.44,30.26,7,2,12,0.01
2014-1-2,45,43,40,44,42,35,96,94,83,29.69,29.61,8,4,16,0.32